createdAt,value
2018-03-29T00:00:27.394Z,22.37
2018-03-29T00:02:53.761Z,21.97
2018-03-29T00:05:20.132Z,23.60
2018-03-29T00:07:46.498Z,23.90
2018-03-29T00:10:12.861Z,23.87
2018-03-29T00:12:39.247Z,21.53
2018-03-29T00:15:05.638Z,21.83
2018-03-29T00:17:32.059Z,22.37
2018-03-29T00:19:58.434Z,23.23
2018-03-29T00:22:24.839Z,23.83
2018-03-29T00:24:51.238Z,22.80
2018-03-29T00:27:17.622Z,22.53
2018-03-29T00:29:44.019Z,24.17
2018-03-29T00:32:10.394Z,24.53
2018-03-29T00:34:36.763Z,24.53
2018-03-29T00:37:03.130Z,27.37
2018-03-29T00:39:29.489Z,26.27
2018-03-29T00:41:56.280Z,26.30
2018-03-29T00:44:22.636Z,27.10
2018-03-29T00:46:49.130Z,26.17
2018-03-29T00:49:15.545Z,26.33
2018-03-29T00:51:41.981Z,26.10
2018-03-29T00:54:08.366Z,26.20
2018-03-29T00:56:34.726Z,26.77
2018-03-29T00:59:01.085Z,29.57
2018-03-29T01:01:27.467Z,29.33
2018-03-29T01:03:53.841Z,30.77
2018-03-29T01:06:21.215Z,30.77
2018-03-29T01:08:47.586Z,31.30
2018-03-29T01:11:14.013Z,31.03
2018-03-29T01:13:40.387Z,31.97
2018-03-29T01:16:06.928Z,32.73
2018-03-29T01:18:33.338Z,30.80
2018-03-29T01:20:59.761Z,30.97
2018-03-29T01:23:26.234Z,28.30
2018-03-29T01:25:52.588Z,29.83
2018-03-29T01:28:18.990Z,29.77
2018-03-29T01:30:45.383Z,29.20
2018-03-29T01:33:11.750Z,28.67
2018-03-29T01:35:38.126Z,25.60
2018-03-29T01:38:04.561Z,27.40
2018-03-29T01:40:30.929Z,26.20
2018-03-29T01:42:57.367Z,26.77
2018-03-29T01:45:23.778Z,27.20
2018-03-29T01:47:50.238Z,25.87
2018-03-29T01:50:16.636Z,25.80
2018-03-29T01:52:43.085Z,28.13
2018-03-29T01:55:09.448Z,25.60
2018-03-29T01:57:35.862Z,27.23
2018-03-29T02:00:02.342Z,24.93
2018-03-29T02:02:28.819Z,24.43
2018-03-29T02:04:55.241Z,24.50
2018-03-29T02:07:21.628Z,25.80
2018-03-29T02:09:48.174Z,26.87
2018-03-29T02:12:14.626Z,26.43
2018-03-29T02:14:41.078Z,25.43
2018-03-29T02:17:07.490Z,26.23
2018-03-29T02:19:33.952Z,26.83
2018-03-29T02:22:00.386Z,28.57
2018-03-29T02:24:26.777Z,28.03
2018-03-29T02:26:53.225Z,28.30
2018-03-29T02:29:19.601Z,29.63
2018-03-29T02:31:45.988Z,27.57
2018-03-29T02:34:12.362Z,30.80
2018-03-29T02:36:38.763Z,29.87
2018-03-29T02:39:05.190Z,31.50
2018-03-29T02:41:31.632Z,31.07
2018-03-29T02:43:58.044Z,33.00
2018-03-29T02:46:24.399Z,33.80
2018-03-29T02:48:50.798Z,34.50
2018-03-29T02:51:17.192Z,33.10
2018-03-29T02:53:43.554Z,33.47
2018-03-29T02:56:09.922Z,33.33
2018-03-29T02:58:36.291Z,33.97
2018-03-29T03:01:02.718Z,34.50
2018-03-29T03:03:29.070Z,34.97
2018-03-29T03:05:55.562Z,33.80
2018-03-29T03:08:22.060Z,34.60
2018-03-29T03:10:48.455Z,34.80
2018-03-29T03:13:14.828Z,35.50
2018-03-29T03:15:41.260Z,33.43
2018-03-29T03:18:07.658Z,32.40
2018-03-29T03:20:34.058Z,33.50
2018-03-29T03:23:00.436Z,33.73
2018-03-29T03:25:26.796Z,32.37
2018-03-29T03:27:53.258Z,35.23
2018-03-29T03:30:19.846Z,31.53
2018-03-29T03:32:46.246Z,32.57
2018-03-29T03:35:12.633Z,31.80
2018-03-29T03:37:39.058Z,30.03
2018-03-29T03:40:05.466Z,30.17
2018-03-29T03:42:32.019Z,30.23
2018-03-29T03:44:58.440Z,30.90
2018-03-29T03:47:24.821Z,30.13
2018-03-29T03:49:51.279Z,29.37
2018-03-29T03:52:17.678Z,29.30
2018-03-29T03:54:44.077Z,29.33
2018-03-29T03:57:10.453Z,29.13
2018-03-29T03:59:36.845Z,30.10
2018-03-29T04:02:03.236Z,29.23
2018-03-29T04:04:29.606Z,30.90
2018-03-29T04:06:55.974Z,31.40
2018-03-29T04:09:22.417Z,32.43
2018-03-29T04:11:48.830Z,32.50
2018-03-29T04:14:15.210Z,31.47
2018-03-29T04:16:41.841Z,33.70
2018-03-29T04:19:08.404Z,31.83
2018-03-29T04:21:34.885Z,34.30
2018-03-29T04:24:01.267Z,34.00
2018-03-29T04:26:27.712Z,34.47
2018-03-29T04:28:54.080Z,37.03
2018-03-29T04:31:20.470Z,37.30
2018-03-29T04:33:46.834Z,37.93
2018-03-29T04:36:13.189Z,33.60
2018-03-29T04:38:39.569Z,32.40
2018-03-29T04:41:06.004Z,35.63
2018-03-29T04:43:32.566Z,31.50
2018-03-29T04:45:58.981Z,32.37
2018-03-29T04:48:25.414Z,41.40
2018-03-29T04:50:51.850Z,37.27
2018-03-29T04:53:18.361Z,48.77
2018-03-29T04:55:44.797Z,41.77
2018-03-29T04:58:11.174Z,37.30
2018-03-29T05:00:37.565Z,34.27
2018-03-29T05:03:03.996Z,49.27
2018-03-29T05:05:30.391Z,46.97
2018-03-29T05:07:56.770Z,39.17
2018-03-29T05:10:23.174Z,40.20
2018-03-29T05:12:49.546Z,35.73
2018-03-29T05:15:15.969Z,34.57
2018-03-29T05:17:42.354Z,35.70
2018-03-29T05:20:08.812Z,38.17
2018-03-29T05:22:35.489Z,38.80
2018-03-29T05:25:01.921Z,52.27
2018-03-29T05:27:28.386Z,55.70
2018-03-29T05:29:54.770Z,55.40
2018-03-29T05:32:21.150Z,49.00
2018-03-29T05:34:47.568Z,43.33
2018-03-29T05:37:14.038Z,42.67
2018-03-29T05:39:40.454Z,42.70
2018-03-29T05:42:06.825Z,36.50
2018-03-29T05:44:33.314Z,34.37
2018-03-29T05:46:59.767Z,43.40
2018-03-29T05:49:26.145Z,35.70
2018-03-29T05:51:52.638Z,39.43
2018-03-29T05:54:19.034Z,35.67
2018-03-29T05:56:45.410Z,35.00
2018-03-29T05:59:11.761Z,36.33
2018-03-29T06:01:38.188Z,34.43
2018-03-29T06:04:04.724Z,34.43
2018-03-29T06:06:31.133Z,35.30
2018-03-29T06:08:57.499Z,35.90
2018-03-29T06:11:23.866Z,35.97
2018-03-29T06:13:56.425Z,35.97
2018-03-29T06:16:22.830Z,34.67
2018-03-29T06:18:49.247Z,30.97
2018-03-29T06:21:15.618Z,31.43
2018-03-29T06:23:42.130Z,33.37
2018-03-29T06:26:08.845Z,30.50
2018-03-29T06:28:35.240Z,31.93
2018-03-29T06:31:01.574Z,29.57
2018-03-29T06:33:27.990Z,31.53
2018-03-29T06:35:54.437Z,30.77
2018-03-29T06:38:20.802Z,31.50
2018-03-29T06:40:47.166Z,32.67
2018-03-29T06:43:13.597Z,32.67
2018-03-29T06:45:39.965Z,35.07
2018-03-29T06:48:06.318Z,30.47
2018-03-29T06:50:32.703Z,31.37
2018-03-29T06:52:59.069Z,33.10
2018-03-29T06:55:25.558Z,28.53
2018-03-29T06:57:51.923Z,28.53
2018-03-29T07:00:18.302Z,30.03
2018-03-29T07:02:44.674Z,31.17
2018-03-29T07:05:11.042Z,32.73
2018-03-29T07:07:37.456Z,32.50
2018-03-29T07:10:03.945Z,30.67
2018-03-29T07:12:30.339Z,27.17
2018-03-29T07:14:56.866Z,27.80
2018-03-29T07:17:23.215Z,27.17
2018-03-29T07:19:49.593Z,26.47
2018-03-29T07:22:15.969Z,26.67
2018-03-29T07:24:42.330Z,24.43
2018-03-29T07:27:08.702Z,24.83
2018-03-29T07:29:35.054Z,21.67
2018-03-29T07:32:01.420Z,24.20
2018-03-29T07:34:27.796Z,24.13
2018-03-29T07:36:54.191Z,22.60
2018-03-29T07:39:20.729Z,23.53
2018-03-29T07:41:50.314Z,23.53
2018-03-29T07:44:24.411Z,22.73
2018-03-29T07:46:53.261Z,23.63
2018-03-29T07:49:19.791Z,24.20
2018-03-29T07:51:46.153Z,22.57
2018-03-29T07:54:12.505Z,20.80
2018-03-29T07:56:38.882Z,18.73
2018-03-29T07:59:05.274Z,20.07
2018-03-29T08:01:31.649Z,15.40
2018-03-29T08:03:58.031Z,14.70
2018-03-29T08:06:24.574Z,17.53
2018-03-29T08:08:50.950Z,15.87
2018-03-29T08:11:17.336Z,16.23
2018-03-29T08:13:43.698Z,16.27
2018-03-29T08:16:10.062Z,15.60
2018-03-29T08:18:36.485Z,15.63
2018-03-29T08:21:02.846Z,15.03
2018-03-29T08:23:29.191Z,13.13
2018-03-29T08:25:55.571Z,13.53
2018-03-29T08:28:22.004Z,12.93
2018-03-29T08:30:48.374Z,12.80
2018-03-29T08:33:14.750Z,11.80
2018-03-29T08:35:41.138Z,14.80
2018-03-29T08:38:07.494Z,12.23
2018-03-29T08:40:33.889Z,12.10
2018-03-29T08:43:00.302Z,13.37
2018-03-29T08:45:26.670Z,12.07
2018-03-29T08:47:53.039Z,13.60
2018-03-29T08:50:19.659Z,12.97
2018-03-29T08:52:46.315Z,11.63
2018-03-29T08:55:12.725Z,10.23
2018-03-29T08:57:39.101Z,10.50
2018-03-29T09:00:05.717Z,10.67
2018-03-29T09:02:32.134Z,9.27
2018-03-29T09:04:58.870Z,11.20
2018-03-29T09:07:25.239Z,11.47
2018-03-29T09:09:51.842Z,9.93
2018-03-29T09:12:18.217Z,10.90
2018-03-29T09:14:44.614Z,10.07
2018-03-29T09:17:11.002Z,10.20
2018-03-29T09:19:37.576Z,10.47
2018-03-29T09:22:04.106Z,11.60
2018-03-29T09:24:30.470Z,9.37
2018-03-29T09:26:56.869Z,8.93
2018-03-29T09:29:23.234Z,10.30
2018-03-29T09:31:49.613Z,9.67
2018-03-29T09:34:16.113Z,10.83
2018-03-29T09:36:42.642Z,9.20
2018-03-29T09:39:09.038Z,8.90
2018-03-29T09:41:35.714Z,8.97
2018-03-29T09:44:02.081Z,8.47
2018-03-29T09:46:28.485Z,9.47
2018-03-29T09:48:54.874Z,10.40
2018-03-29T09:51:21.344Z,9.07
2018-03-29T09:53:47.692Z,13.53
2018-03-29T09:56:14.073Z,10.20
2018-03-29T09:58:40.529Z,11.03
2018-03-29T10:01:06.962Z,9.60
2018-03-29T10:03:39.595Z,8.97
2018-03-29T10:06:06.077Z,9.40
2018-03-29T10:08:32.481Z,9.40
2018-03-29T10:10:59.019Z,9.83
2018-03-29T10:13:25.413Z,9.87
2018-03-29T10:15:51.942Z,9.83
2018-03-29T10:18:18.304Z,9.13
2018-03-29T10:20:44.733Z,8.73
2018-03-29T10:23:11.140Z,8.77
2018-03-29T10:25:37.618Z,8.10
2018-03-29T10:28:04.014Z,8.60
2018-03-29T10:30:30.673Z,9.27
2018-03-29T10:32:57.089Z,9.10
2018-03-29T10:35:23.482Z,9.07
2018-03-29T10:37:54.300Z,7.93
2018-03-29T10:40:54.246Z,9.10
2018-03-29T10:43:21.203Z,8.93
2018-03-29T10:45:49.538Z,7.97
2018-03-29T10:48:16.913Z,8.20
2018-03-29T10:50:46.038Z,7.67
2018-03-29T10:53:21.799Z,7.70
2018-03-29T10:55:51.421Z,7.70
2018-03-29T10:58:18.002Z,7.07
2018-03-29T11:00:44.481Z,7.03
2018-03-29T11:03:11.089Z,6.57
2018-03-29T11:05:37.622Z,7.13
2018-03-29T11:08:04.178Z,8.00
2018-03-29T11:10:30.646Z,6.97
2018-03-29T11:12:57.014Z,8.60
2018-03-29T11:15:23.458Z,6.83
2018-03-29T11:17:49.843Z,7.53
2018-03-29T11:20:16.290Z,7.37
2018-03-29T11:22:42.685Z,7.67
2018-03-29T11:25:09.154Z,7.43
2018-03-29T11:27:35.577Z,7.47
2018-03-29T11:30:02.186Z,8.37
2018-03-29T11:32:28.678Z,8.00
2018-03-29T11:34:55.097Z,9.07
2018-03-29T11:37:21.754Z,7.70
2018-03-29T11:39:48.169Z,7.43
2018-03-29T11:42:14.666Z,7.27
2018-03-29T11:44:41.158Z,5.93
2018-03-29T11:47:07.571Z,5.83
2018-03-29T11:49:34.007Z,5.97
2018-03-29T11:52:00.510Z,7.20
2018-03-29T11:54:26.904Z,7.83
2018-03-29T11:56:53.326Z,7.93
2018-03-29T11:59:19.829Z,7.27
2018-03-29T12:01:46.214Z,7.50
2018-03-29T12:04:12.730Z,7.27
2018-03-29T12:06:39.185Z,8.67
2018-03-29T12:09:05.806Z,8.60
2018-03-29T12:11:32.357Z,8.20
2018-03-29T12:13:58.798Z,7.93
2018-03-29T12:16:25.258Z,8.70
2018-03-29T12:18:51.738Z,9.10
2018-03-29T12:21:18.178Z,9.37
2018-03-29T12:23:44.593Z,7.50
2018-03-29T12:26:11.146Z,9.30
2018-03-29T12:28:37.569Z,9.50
2018-03-29T12:31:04.087Z,10.10
2018-03-29T12:33:30.503Z,10.30
2018-03-29T12:35:56.998Z,10.87
2018-03-29T12:38:23.458Z,10.93
2018-03-29T12:40:49.861Z,11.07
2018-03-29T12:43:16.242Z,11.90
2018-03-29T12:45:42.671Z,12.00
2018-03-29T12:48:09.200Z,12.70
2018-03-29T12:50:35.626Z,13.13
2018-03-29T12:53:02.033Z,12.70
2018-03-29T12:55:38.554Z,13.00
2018-03-29T12:58:11.784Z,13.87
2018-03-29T13:00:38.271Z,13.67
2018-03-29T13:03:04.749Z,14.60
2018-03-29T13:05:31.170Z,15.00
2018-03-29T13:07:57.605Z,14.23
2018-03-29T13:10:24.066Z,15.17
2018-03-29T13:12:50.611Z,13.47
2018-03-29T13:15:17.050Z,11.20
2018-03-29T13:17:43.417Z,14.10
2018-03-29T13:20:09.865Z,13.70
2018-03-29T13:22:36.409Z,13.67
2018-03-29T13:25:02.958Z,14.13
2018-03-29T13:27:29.414Z,12.40
2018-03-29T13:29:55.806Z,12.37
2018-03-29T13:32:22.268Z,10.57
2018-03-29T13:34:48.738Z,11.20
2018-03-29T13:37:15.246Z,9.37
2018-03-29T13:39:41.633Z,10.40
2018-03-29T13:42:08.037Z,11.17
2018-03-29T13:44:34.516Z,9.60
2018-03-29T13:47:01.013Z,9.53
2018-03-29T13:49:27.513Z,8.97
2018-03-29T13:51:53.882Z,8.47
2018-03-29T13:54:20.290Z,8.60
2018-03-29T13:56:46.704Z,7.77
2018-03-29T13:59:13.122Z,7.77
2018-03-29T14:01:39.546Z,7.37
2018-03-29T14:04:06.044Z,7.33
2018-03-29T14:06:32.539Z,7.30
2018-03-29T14:08:59.028Z,9.07
2018-03-29T14:11:25.509Z,8.77
2018-03-29T14:13:51.948Z,9.40
2018-03-29T14:16:18.314Z,8.13
2018-03-29T14:18:44.772Z,8.50
2018-03-29T14:21:11.141Z,8.13
2018-03-29T14:23:37.935Z,7.63
2018-03-29T14:26:04.547Z,7.73
2018-03-29T14:28:30.930Z,6.87
2018-03-29T14:30:57.549Z,7.20
2018-03-29T14:33:23.954Z,7.80
2018-03-29T14:35:50.608Z,7.93
2018-03-29T14:38:17.286Z,8.20
2018-03-29T14:40:43.813Z,9.17
2018-03-29T14:43:10.302Z,9.07
2018-03-29T14:45:36.794Z,8.30
2018-03-29T14:48:03.214Z,8.40
2018-03-29T14:50:29.641Z,7.33
2018-03-29T14:52:56.150Z,6.33
2018-03-29T14:55:22.594Z,7.10
2018-03-29T14:57:49.022Z,7.60
2018-03-29T15:00:16.237Z,7.53
2018-03-29T15:02:42.701Z,9.57
2018-03-29T15:05:09.150Z,8.67
2018-03-29T15:07:35.662Z,7.77
2018-03-29T15:10:02.145Z,9.27
2018-03-29T15:12:28.557Z,7.60
2018-03-29T15:14:54.934Z,8.90
2018-03-29T15:17:21.386Z,8.33
2018-03-29T15:19:47.865Z,9.03
2018-03-29T15:22:14.286Z,8.57
2018-03-29T15:24:40.706Z,8.17
2018-03-29T15:27:07.142Z,7.77
2018-03-29T15:29:33.628Z,7.67
2018-03-29T15:32:00.146Z,8.63
2018-03-29T15:34:26.654Z,8.10
2018-03-29T15:36:53.025Z,7.50
2018-03-29T15:39:19.443Z,10.20
2018-03-29T15:41:45.873Z,10.90
2018-03-29T15:44:12.274Z,11.73
2018-03-29T15:46:38.765Z,10.17
2018-03-29T15:49:05.174Z,15.30
2018-03-29T15:51:31.569Z,22.87
2018-03-29T15:53:58.007Z,20.17
2018-03-29T15:56:24.434Z,18.67
2018-03-29T15:58:50.852Z,14.07
2018-03-29T16:01:17.353Z,14.43
2018-03-29T16:03:43.778Z,17.03
2018-03-29T16:06:10.218Z,15.17
2018-03-29T16:08:36.710Z,18.20
2018-03-29T16:11:03.181Z,16.53
2018-03-29T16:13:29.654Z,16.73
2018-03-29T16:15:56.121Z,14.40
2018-03-29T16:18:22.510Z,13.13
2018-03-29T16:20:48.941Z,14.40
2018-03-29T16:23:15.390Z,14.40
2018-03-29T16:25:41.738Z,14.67
2018-03-29T16:28:08.117Z,14.47
2018-03-29T16:30:34.678Z,16.80
2018-03-29T16:33:01.085Z,18.70
2018-03-29T16:35:27.474Z,19.87
2018-03-29T16:37:53.967Z,21.53
2018-03-29T16:40:20.330Z,22.83
2018-03-29T16:42:46.829Z,22.90
2018-03-29T16:45:13.226Z,25.33
2018-03-29T16:47:39.681Z,25.40
2018-03-29T16:50:06.133Z,25.30
2018-03-29T16:52:32.510Z,24.77
2018-03-29T16:54:58.996Z,25.83
2018-03-29T16:57:25.443Z,24.77
2018-03-29T16:59:51.841Z,26.17
2018-03-29T17:02:18.257Z,25.23
2018-03-29T17:04:44.754Z,25.80
2018-03-29T17:07:11.100Z,26.30
2018-03-29T17:09:37.534Z,31.87
2018-03-29T17:12:03.986Z,36.60
2018-03-29T17:14:30.441Z,35.30
2018-03-29T17:16:56.898Z,35.20
2018-03-29T17:19:23.373Z,41.00
2018-03-29T17:21:49.830Z,39.13
2018-03-29T17:24:16.245Z,37.30
2018-03-29T17:26:42.856Z,36.53
2018-03-29T17:29:09.301Z,43.03
2018-03-29T17:31:35.779Z,49.30
2018-03-29T17:34:02.177Z,53.60
2018-03-29T17:36:28.650Z,50.57
2018-03-29T17:38:55.106Z,51.87
2018-03-29T17:41:21.497Z,52.17
2018-03-29T17:43:47.941Z,51.60
2018-03-29T17:46:14.447Z,56.63
2018-03-29T17:48:40.898Z,58.93
2018-03-29T17:51:07.350Z,61.50
2018-03-29T17:53:33.737Z,61.07
2018-03-29T17:56:00.232Z,58.90
2018-03-29T17:58:26.603Z,58.73
2018-03-29T18:00:53.019Z,60.37
2018-03-29T18:03:19.427Z,59.90
2018-03-29T18:05:45.873Z,64.37
2018-03-29T18:08:12.280Z,61.17
2018-03-29T18:10:38.734Z,60.33
2018-03-29T18:13:05.149Z,60.30
2018-03-29T18:15:31.560Z,55.97
2018-03-29T18:17:57.965Z,55.40
2018-03-29T18:20:24.366Z,54.50
2018-03-29T18:22:50.786Z,57.07
2018-03-29T18:25:17.222Z,55.07
2018-03-29T18:27:43.625Z,54.33
2018-03-29T18:30:10.033Z,53.43
2018-03-29T18:32:36.493Z,54.87
2018-03-29T18:35:02.957Z,53.07
2018-03-29T18:37:29.382Z,55.77
2018-03-29T18:39:55.780Z,55.57
2018-03-29T18:42:22.206Z,57.70
2018-03-29T18:44:48.666Z,68.83
2018-03-29T18:47:15.037Z,69.97
2018-03-29T18:49:41.564Z,61.40
2018-03-29T18:52:08.038Z,48.50
2018-03-29T18:54:34.422Z,41.37
2018-03-29T18:57:00.806Z,39.53
2018-03-29T18:59:27.214Z,36.80
2018-03-29T19:01:53.641Z,35.73
2018-03-29T19:04:20.146Z,36.87
2018-03-29T19:06:46.515Z,37.13
2018-03-29T19:09:12.933Z,38.90
2018-03-29T19:11:39.349Z,40.67
2018-03-29T19:14:05.751Z,38.47
2018-03-29T19:16:32.185Z,32.47
2018-03-29T19:18:58.603Z,35.43
2018-03-29T19:21:25.080Z,38.10
2018-03-29T19:23:51.562Z,33.23
2018-03-29T19:26:17.997Z,34.43
2018-03-29T19:28:44.481Z,27.23
2018-03-29T19:31:10.902Z,23.67
2018-03-29T19:33:37.330Z,23.70
2018-03-29T19:36:03.757Z,21.73
2018-03-29T19:38:30.198Z,20.60
2018-03-29T19:40:56.610Z,20.40
2018-03-29T19:43:23.078Z,20.67
2018-03-29T19:45:49.522Z,16.43
2018-03-29T19:48:15.927Z,18.47
2018-03-29T19:50:42.419Z,21.93
2018-03-29T19:53:08.873Z,26.73
2018-03-29T19:55:35.298Z,26.20
2018-03-29T19:58:01.701Z,26.03
2018-03-29T20:00:28.119Z,23.77
2018-03-29T20:02:54.554Z,23.67
2018-03-29T20:05:20.959Z,22.73
2018-03-29T20:07:47.394Z,23.60
2018-03-29T20:10:13.834Z,21.40
2018-03-29T20:12:40.248Z,18.33
2018-03-29T20:15:06.691Z,18.83
2018-03-29T20:17:33.149Z,19.20
2018-03-29T20:19:59.616Z,19.53
2018-03-29T20:22:26.024Z,21.50
2018-03-29T20:24:52.404Z,22.17
2018-03-29T20:27:18.800Z,22.53
2018-03-29T20:29:45.208Z,21.27
2018-03-29T20:32:11.617Z,20.47
2018-03-29T20:34:38.069Z,19.97
2018-03-29T20:37:04.413Z,20.30
2018-03-29T20:39:30.798Z,20.83
2018-03-29T20:41:57.334Z,23.03
2018-03-29T20:44:23.823Z,24.17
2018-03-29T20:46:50.253Z,21.57
2018-03-29T20:49:16.642Z,18.97
2018-03-29T20:51:43.069Z,18.17
2018-03-29T20:54:09.545Z,18.57
2018-03-29T20:56:35.910Z,16.43
2018-03-29T20:59:02.274Z,15.53
2018-03-29T21:01:28.706Z,15.10
2018-03-29T21:03:55.142Z,14.67
2018-03-29T21:06:21.550Z,14.10
2018-03-29T21:08:47.982Z,13.50
2018-03-29T21:11:14.405Z,13.73
2018-03-29T21:13:40.786Z,12.83
2018-03-29T21:16:07.225Z,13.13
2018-03-29T21:18:33.613Z,13.00
2018-03-29T21:21:00.010Z,12.00
2018-03-29T21:23:26.624Z,11.50
2018-03-29T21:25:53.028Z,12.10
2018-03-29T21:28:19.485Z,11.77
2018-03-29T21:30:45.910Z,11.83
2018-03-29T21:33:12.322Z,11.00
2018-03-29T21:35:38.751Z,11.87
2018-03-29T21:38:05.168Z,10.73
2018-03-29T21:40:31.659Z,10.63
2018-03-29T21:42:58.092Z,11.00
2018-03-29T21:45:24.479Z,10.33
2018-03-29T21:47:50.895Z,11.30
2018-03-29T21:50:17.344Z,11.70
2018-03-29T21:52:43.901Z,10.47
2018-03-29T21:55:10.301Z,11.30
2018-03-29T21:57:36.721Z,11.13
2018-03-29T22:00:03.207Z,11.27
2018-03-29T22:02:29.734Z,10.97
2018-03-29T22:04:56.161Z,11.17
2018-03-29T22:07:22.522Z,11.23
2018-03-29T22:09:48.910Z,10.90
2018-03-29T22:12:15.318Z,10.73
2018-03-29T22:14:41.698Z,9.73
2018-03-29T22:17:08.078Z,10.63
2018-03-29T22:19:34.481Z,9.90
2018-03-29T22:22:00.931Z,9.47
2018-03-29T22:24:27.335Z,9.57
2018-03-29T22:26:53.810Z,9.77
2018-03-29T22:29:20.250Z,10.50
2018-03-29T22:31:46.667Z,10.53
2018-03-29T22:34:13.117Z,10.07
2018-03-29T22:36:39.606Z,10.60
2018-03-29T22:39:06.076Z,9.73
2018-03-29T22:41:32.499Z,10.00
2018-03-29T22:43:58.942Z,11.13
2018-03-29T22:46:25.334Z,11.17
2018-03-29T22:48:51.810Z,10.73
2018-03-29T22:51:18.247Z,10.67
2018-03-29T22:53:44.738Z,10.33
2018-03-29T22:56:11.205Z,11.00
2018-03-29T22:58:37.573Z,10.80
2018-03-29T23:01:03.997Z,11.13
2018-03-29T23:03:30.401Z,11.07
2018-03-29T23:05:56.774Z,10.97
2018-03-29T23:08:23.177Z,11.90
2018-03-29T23:10:49.605Z,12.27
2018-03-29T23:13:16.062Z,11.60
2018-03-29T23:15:42.444Z,12.43
2018-03-29T23:18:08.878Z,11.50
2018-03-29T23:20:35.305Z,11.37
2018-03-29T23:23:01.762Z,12.57
2018-03-29T23:25:28.187Z,11.43
2018-03-29T23:27:54.649Z,11.47
2018-03-29T23:30:21.054Z,10.67
2018-03-29T23:32:47.413Z,12.70
2018-03-29T23:35:13.789Z,12.13
2018-03-29T23:37:40.210Z,11.77
2018-03-29T23:40:06.581Z,11.97
2018-03-29T23:42:32.966Z,12.50
2018-03-29T23:44:59.365Z,12.80
2018-03-29T23:47:25.766Z,13.03
2018-03-29T23:49:52.186Z,12.33
2018-03-29T23:52:18.626Z,11.90
2018-03-29T23:54:45.020Z,13.40
2018-03-29T23:57:11.461Z,13.03
2018-03-29T23:59:37.887Z,13.30
